sensor_id;sensor_type;location;lat;lon;timestamp;P1;durP1;ratioP1;P2;durP2;ratioP2
9398;SDS011;4739;49.334;8.792;2022-10-30T00:01:51;10.00;;;6.13;;
9398;SDS011;4739;49.334;8.792;2022-10-30T00:04:17;10.90;;;5.60;;
9398;SDS011;4739;49.334;8.792;2022-10-30T00:06:42;8.93;;;5.67;;
9398;SDS011;4739;49.334;8.792;2022-10-30T00:09:09;9.30;;;5.90;;
9398;SDS011;4739;49.334;8.792;2022-10-30T00:11:34;11.03;;;5.90;;
9398;SDS011;4739;49.334;8.792;2022-10-30T00:14:00;9.47;;;5.60;;
9398;SDS011;4739;49.334;8.792;2022-10-30T00:16:26;8.53;;;5.83;;
9398;SDS011;4739;49.334;8.792;2022-10-30T00:18:51;11.17;;;5.83;;
9398;SDS011;4739;49.334;8.792;2022-10-30T00:21:17;12.67;;;6.57;;
9398;SDS011;4739;49.334;8.792;2022-10-30T00:23:49;10.10;;;6.33;;
9398;SDS011;4739;49.334;8.792;2022-10-30T00:26:17;10.83;;;5.87;;
9398;SDS011;4739;49.334;8.792;2022-10-30T00:28:48;8.77;;;5.20;;
9398;SDS011;4739;49.334;8.792;2022-10-30T00:31:17;12.73;;;6.17;;
9398;SDS011;4739;49.334;8.792;2022-10-30T00:33:47;9.43;;;5.83;;
9398;SDS011;4739;49.334;8.792;2022-10-30T00:36:14;14.17;;;6.50;;
9398;SDS011;4739;49.334;8.792;2022-10-30T00:41:05;10.87;;;6.13;;
9398;SDS011;4739;49.334;8.792;2022-10-30T00:43:32;10.60;;;5.83;;
9398;SDS011;4739;49.334;8.792;2022-10-30T00:46:02;10.20;;;6.17;;
9398;SDS011;4739;49.334;8.792;2022-10-30T00:51:41;8.43;;;6.20;;
9398;SDS011;4739;49.334;8.792;2022-10-30T00:54:11;12.77;;;6.90;;
9398;SDS011;4739;49.334;8.792;2022-10-30T00:56:42;12.50;;;6.23;;
9398;SDS011;4739;49.334;8.792;2022-10-30T00:59:10;8.03;;;5.60;;
9398;SDS011;4739;49.334;8.792;2022-10-30T01:01:41;10.17;;;6.63;;
9398;SDS011;4739;49.334;8.792;2022-10-30T01:04:08;6.73;;;5.47;;
9398;SDS011;4739;49.334;8.792;2022-10-30T01:06:36;9.53;;;6.00;;
9398;SDS011;4739;49.334;8.792;2022-10-30T01:09:03;10.73;;;5.87;;
9398;SDS011;4739;49.334;8.792;2022-10-30T01:11:29;11.47;;;6.00;;
9398;SDS011;4739;49.334;8.792;2022-10-30T01:13:56;9.87;;;6.30;;
9398;SDS011;4739;49.334;8.792;2022-10-30T01:22:38;13.00;;;5.90;;
9398;SDS011;4739;49.334;8.792;2022-10-30T01:40:36;12.07;;;5.73;;
9398;SDS011;4739;49.334;8.792;2022-10-30T01:43:02;10.37;;;5.80;;
9398;SDS011;4739;49.334;8.792;2022-10-30T01:51:01;9.00;;;5.70;;
9398;SDS011;4739;49.334;8.792;2022-10-30T01:53:38;7.90;;;5.43;;
9398;SDS011;4739;49.334;8.792;2022-10-30T01:58:43;11.37;;;5.63;;
9398;SDS011;4739;49.334;8.792;2022-10-30T02:01:16;11.40;;;5.77;;
9398;SDS011;4739;49.334;8.792;2022-10-30T02:03:43;10.20;;;5.50;;
9398;SDS011;4739;49.334;8.792;2022-10-30T02:06:09;7.97;;;5.37;;
9398;SDS011;4739;49.334;8.792;2022-10-30T02:08:35;9.63;;;5.43;;
9398;SDS011;4739;49.334;8.792;2022-10-30T02:11:01;12.43;;;5.50;;
9398;SDS011;4739;49.334;8.792;2022-10-30T02:13:27;9.17;;;5.70;;
9398;SDS011;4739;49.334;8.792;2022-10-30T02:15:52;6.70;;;5.27;;
9398;SDS011;4739;49.334;8.792;2022-10-30T02:18:19;9.87;;;5.07;;
9398;SDS011;4739;49.334;8.792;2022-10-30T02:20:44;11.17;;;5.97;;
9398;SDS011;4739;49.334;8.792;2022-10-30T02:23:10;8.37;;;5.60;;
9398;SDS011;4739;49.334;8.792;2022-10-30T02:25:42;13.03;;;6.40;;
9398;SDS011;4739;49.334;8.792;2022-10-30T02:28:09;7.70;;;5.47;;
9398;SDS011;4739;49.334;8.792;2022-10-30T02:30:35;8.93;;;5.40;;
9398;SDS011;4739;49.334;8.792;2022-10-30T02:33:01;8.50;;;5.60;;
9398;SDS011;4739;49.334;8.792;2022-10-30T02:35:26;8.57;;;5.40;;
9398;SDS011;4739;49.334;8.792;2022-10-30T02:37:53;11.37;;;5.97;;
9398;SDS011;4739;49.334;8.792;2022-10-30T02:40:19;8.23;;;4.80;;
9398;SDS011;4739;49.334;8.792;2022-10-30T02:42:49;8.23;;;5.30;;
9398;SDS011;4739;49.334;8.792;2022-10-30T02:45:19;10.53;;;5.70;;
9398;SDS011;4739;49.334;8.792;2022-10-30T02:47:45;6.50;;;4.83;;
9398;SDS011;4739;49.334;8.792;2022-10-30T02:50:10;6.73;;;4.70;;
9398;SDS011;4739;49.334;8.792;2022-10-30T02:52:36;12.73;;;5.60;;
9398;SDS011;4739;49.334;8.792;2022-10-30T02:55:02;9.67;;;5.63;;
9398;SDS011;4739;49.334;8.792;2022-10-30T02:57:28;7.87;;;5.47;;
9398;SDS011;4739;49.334;8.792;2022-10-30T02:59:53;8.90;;;5.40;;
9398;SDS011;4739;49.334;8.792;2022-10-30T03:02:19;8.60;;;5.83;;
9398;SDS011;4739;49.334;8.792;2022-10-30T03:04:44;9.03;;;5.53;;
9398;SDS011;4739;49.334;8.792;2022-10-30T03:07:10;10.53;;;5.00;;
9398;SDS011;4739;49.334;8.792;2022-10-30T03:09:35;8.90;;;4.67;;
9398;SDS011;4739;49.334;8.792;2022-10-30T03:12:01;9.70;;;5.03;;
9398;SDS011;4739;49.334;8.792;2022-10-30T03:14:26;8.97;;;5.47;;
9398;SDS011;4739;49.334;8.792;2022-10-30T03:16:52;10.23;;;5.13;;
9398;SDS011;4739;49.334;8.792;2022-10-30T03:19:18;8.90;;;5.17;;
9398;SDS011;4739;49.334;8.792;2022-10-30T03:21:44;8.43;;;5.47;;
9398;SDS011;4739;49.334;8.792;2022-10-30T03:24:10;12.43;;;5.43;;
9398;SDS011;4739;49.334;8.792;2022-10-30T03:26:36;11.73;;;5.00;;
9398;SDS011;4739;49.334;8.792;2022-10-30T03:29:02;5.97;;;4.30;;
9398;SDS011;4739;49.334;8.792;2022-10-30T03:31:29;7.97;;;5.27;;
9398;SDS011;4739;49.334;8.792;2022-10-30T03:33:55;9.80;;;5.23;;
9398;SDS011;4739;49.334;8.792;2022-10-30T03:36:20;9.33;;;4.63;;
9398;SDS011;4739;49.334;8.792;2022-10-30T03:38:46;8.90;;;5.33;;
9398;SDS011;4739;49.334;8.792;2022-10-30T03:41:11;7.40;;;4.60;;
9398;SDS011;4739;49.334;8.792;2022-10-30T03:43:38;6.70;;;5.37;;
9398;SDS011;4739;49.334;8.792;2022-10-30T03:46:04;7.50;;;4.93;;
9398;SDS011;4739;49.334;8.792;2022-10-30T03:48:29;8.30;;;4.90;;
9398;SDS011;4739;49.334;8.792;2022-10-30T03:50:56;7.70;;;5.17;;
9398;SDS011;4739;49.334;8.792;2022-10-30T03:53:23;6.30;;;4.43;;
9398;SDS011;4739;49.334;8.792;2022-10-30T03:55:50;5.13;;;4.13;;
9398;SDS011;4739;49.334;8.792;2022-10-30T03:58:17;5.13;;;4.43;;
9398;SDS011;4739;49.334;8.792;2022-10-30T04:00:43;8.33;;;4.50;;
9398;SDS011;4739;49.334;8.792;2022-10-30T04:03:09;10.03;;;5.07;;
9398;SDS011;4739;49.334;8.792;2022-10-30T04:05:35;7.93;;;4.53;;
9398;SDS011;4739;49.334;8.792;2022-10-30T04:08:02;10.10;;;4.30;;
9398;SDS011;4739;49.334;8.792;2022-10-30T04:10:31;4.70;;;4.23;;
9398;SDS011;4739;49.334;8.792;2022-10-30T04:13:04;8.57;;;4.30;;
9398;SDS011;4739;49.334;8.792;2022-10-30T04:15:31;6.83;;;4.10;;
9398;SDS011;4739;49.334;8.792;2022-10-30T04:17:56;9.13;;;4.50;;
9398;SDS011;4739;49.334;8.792;2022-10-30T04:20:23;6.33;;;4.40;;
9398;SDS011;4739;49.334;8.792;2022-10-30T04:22:54;6.70;;;4.53;;
9398;SDS011;4739;49.334;8.792;2022-10-30T04:25:22;8.60;;;4.70;;
9398;SDS011;4739;49.334;8.792;2022-10-30T04:27:48;11.10;;;4.87;;
9398;SDS011;4739;49.334;8.792;2022-10-30T04:30:13;8.93;;;4.77;;
9398;SDS011;4739;49.334;8.792;2022-10-30T04:32:46;6.67;;;4.33;;
9398;SDS011;4739;49.334;8.792;2022-10-30T04:35:13;7.27;;;4.50;;
9398;SDS011;4739;49.334;8.792;2022-10-30T04:37:39;4.90;;;4.20;;
9398;SDS011;4739;49.334;8.792;2022-10-30T04:40:05;10.67;;;4.90;;
9398;SDS011;4739;49.334;8.792;2022-10-30T04:42:31;6.57;;;4.60;;
9398;SDS011;4739;49.334;8.792;2022-10-30T04:44:57;7.97;;;4.67;;
9398;SDS011;4739;49.334;8.792;2022-10-30T04:47:22;6.30;;;4.10;;
9398;SDS011;4739;49.334;8.792;2022-10-30T04:49:48;9.63;;;4.67;;
9398;SDS011;4739;49.334;8.792;2022-10-30T04:52:13;7.30;;;4.57;;
9398;SDS011;4739;49.334;8.792;2022-10-30T04:54:39;7.67;;;4.70;;
9398;SDS011;4739;49.334;8.792;2022-10-30T04:57:04;8.30;;;5.00;;
9398;SDS011;4739;49.334;8.792;2022-10-30T04:59:30;10.87;;;5.73;;
9398;SDS011;4739;49.334;8.792;2022-10-30T05:01:56;9.37;;;5.33;;
9398;SDS011;4739;49.334;8.792;2022-10-30T05:04:21;11.73;;;5.50;;
9398;SDS011;4739;49.334;8.792;2022-10-30T05:06:47;12.80;;;5.43;;
9398;SDS011;4739;49.334;8.792;2022-10-30T05:09:12;9.57;;;5.43;;
9398;SDS011;4739;49.334;8.792;2022-10-30T05:11:38;6.17;;;4.67;;
9398;SDS011;4739;49.334;8.792;2022-10-30T05:14:03;7.97;;;5.10;;
9398;SDS011;4739;49.334;8.792;2022-10-30T05:16:29;6.43;;;4.60;;
9398;SDS011;4739;49.334;8.792;2022-10-30T05:18:55;9.10;;;5.30;;
9398;SDS011;4739;49.334;8.792;2022-10-30T05:21:21;7.13;;;4.80;;
9398;SDS011;4739;49.334;8.792;2022-10-30T05:23:46;11.07;;;6.00;;
9398;SDS011;4739;49.334;8.792;2022-10-30T05:26:12;11.20;;;5.37;;
9398;SDS011;4739;49.334;8.792;2022-10-30T05:28:37;13.10;;;5.10;;
9398;SDS011;4739;49.334;8.792;2022-10-30T05:31:03;11.90;;;5.07;;
9398;SDS011;4739;49.334;8.792;2022-10-30T05:33:29;12.17;;;5.83;;
9398;SDS011;4739;49.334;8.792;2022-10-30T05:35:55;13.07;;;4.97;;
9398;SDS011;4739;49.334;8.792;2022-10-30T05:38:20;5.53;;;4.77;;
9398;SDS011;4739;49.334;8.792;2022-10-30T05:40:46;7.60;;;4.90;;
9398;SDS011;4739;49.334;8.792;2022-10-30T05:43:11;6.80;;;4.27;;
9398;SDS011;4739;49.334;8.792;2022-10-30T05:45:37;5.37;;;4.33;;
9398;SDS011;4739;49.334;8.792;2022-10-30T05:48:03;8.10;;;5.10;;
9398;SDS011;4739;49.334;8.792;2022-10-30T05:50:30;7.77;;;4.67;;
9398;SDS011;4739;49.334;8.792;2022-10-30T05:52:56;8.90;;;4.93;;
9398;SDS011;4739;49.334;8.792;2022-10-30T05:55:27;10.50;;;5.33;;
9398;SDS011;4739;49.334;8.792;2022-10-30T05:57:56;6.63;;;4.20;;
9398;SDS011;4739;49.334;8.792;2022-10-30T06:00:26;7.00;;;4.57;;
9398;SDS011;4739;49.334;8.792;2022-10-30T06:03:03;6.10;;;3.90;;
9398;SDS011;4739;49.334;8.792;2022-10-30T06:05:31;6.57;;;4.63;;
9398;SDS011;4739;49.334;8.792;2022-10-30T06:07:57;6.87;;;4.50;;
9398;SDS011;4739;49.334;8.792;2022-10-30T06:10:23;8.67;;;4.20;;
9398;SDS011;4739;49.334;8.792;2022-10-30T06:12:53;11.07;;;4.90;;
9398;SDS011;4739;49.334;8.792;2022-10-30T06:15:20;9.27;;;4.30;;
9398;SDS011;4739;49.334;8.792;2022-10-30T06:17:46;13.43;;;4.23;;
9398;SDS011;4739;49.334;8.792;2022-10-30T06:20:12;14.20;;;4.63;;
9398;SDS011;4739;49.334;8.792;2022-10-30T06:22:38;10.20;;;4.30;;
9398;SDS011;4739;49.334;8.792;2022-10-30T06:25:04;10.67;;;4.50;;
9398;SDS011;4739;49.334;8.792;2022-10-30T06:27:32;8.10;;;3.77;;
9398;SDS011;4739;49.334;8.792;2022-10-30T06:29:58;5.07;;;3.50;;
9398;SDS011;4739;49.334;8.792;2022-10-30T06:32:24;4.60;;;3.60;;
9398;SDS011;4739;49.334;8.792;2022-10-30T06:34:49;7.30;;;3.67;;
9398;SDS011;4739;49.334;8.792;2022-10-30T06:37:15;7.57;;;3.37;;
9398;SDS011;4739;49.334;8.792;2022-10-30T06:39:40;9.97;;;3.83;;
9398;SDS011;4739;49.334;8.792;2022-10-30T06:42:06;6.87;;;3.60;;
9398;SDS011;4739;49.334;8.792;2022-10-30T06:44:32;12.00;;;3.97;;
9398;SDS011;4739;49.334;8.792;2022-10-30T06:46:57;11.87;;;3.97;;
9398;SDS011;4739;49.334;8.792;2022-10-30T06:49:23;9.83;;;4.10;;
9398;SDS011;4739;49.334;8.792;2022-10-30T06:51:48;11.67;;;4.77;;
9398;SDS011;4739;49.334;8.792;2022-10-30T06:54:15;17.07;;;5.53;;
9398;SDS011;4739;49.334;8.792;2022-10-30T06:56:40;16.40;;;6.83;;
9398;SDS011;4739;49.334;8.792;2022-10-30T06:59:06;17.83;;;7.20;;
9398;SDS011;4739;49.334;8.792;2022-10-30T07:01:33;16.83;;;7.00;;
9398;SDS011;4739;49.334;8.792;2022-10-30T07:03:58;15.27;;;6.87;;
9398;SDS011;4739;49.334;8.792;2022-10-30T07:06:24;16.20;;;7.07;;
9398;SDS011;4739;49.334;8.792;2022-10-30T07:08:49;12.83;;;6.90;;
9398;SDS011;4739;49.334;8.792;2022-10-30T07:11:15;11.40;;;7.13;;
9398;SDS011;4739;49.334;8.792;2022-10-30T07:13:40;21.00;;;6.93;;
9398;SDS011;4739;49.334;8.792;2022-10-30T07:16:06;15.50;;;6.30;;
9398;SDS011;4739;49.334;8.792;2022-10-30T07:18:32;14.50;;;6.60;;
9398;SDS011;4739;49.334;8.792;2022-10-30T07:20:57;18.90;;;6.77;;
9398;SDS011;4739;49.334;8.792;2022-10-30T07:23:23;7.30;;;6.60;;
9398;SDS011;4739;49.334;8.792;2022-10-30T07:25:48;10.07;;;7.10;;
9398;SDS011;4739;49.334;8.792;2022-10-30T07:28:14;8.47;;;7.53;;
9398;SDS011;4739;49.334;8.792;2022-10-30T07:30:40;9.73;;;7.60;;
9398;SDS011;4739;49.334;8.792;2022-10-30T07:33:05;9.20;;;7.10;;
9398;SDS011;4739;49.334;8.792;2022-10-30T07:35:33;8.40;;;7.00;;
9398;SDS011;4739;49.334;8.792;2022-10-30T07:38:04;8.30;;;7.33;;
9398;SDS011;4739;49.334;8.792;2022-10-30T07:40:31;6.17;;;5.60;;
9398;SDS011;4739;49.334;8.792;2022-10-30T07:42:58;6.10;;;5.50;;
9398;SDS011;4739;49.334;8.792;2022-10-30T07:45:24;6.03;;;4.83;;
9398;SDS011;4739;49.334;8.792;2022-10-30T07:47:50;6.27;;;5.30;;
9398;SDS011;4739;49.334;8.792;2022-10-30T07:50:16;6.70;;;5.33;;
9398;SDS011;4739;49.334;8.792;2022-10-30T07:52:42;8.53;;;5.77;;
9398;SDS011;4739;49.334;8.792;2022-10-30T07:55:08;7.13;;;6.10;;
9398;SDS011;4739;49.334;8.792;2022-10-30T07:57:37;5.30;;;4.80;;
9398;SDS011;4739;49.334;8.792;2022-10-30T08:00:04;6.07;;;5.13;;
9398;SDS011;4739;49.334;8.792;2022-10-30T08:02:31;5.80;;;5.13;;
9398;SDS011;4739;49.334;8.792;2022-10-30T08:04:57;5.83;;;4.73;;
9398;SDS011;4739;49.334;8.792;2022-10-30T08:07:23;4.67;;;4.23;;
9398;SDS011;4739;49.334;8.792;2022-10-30T08:09:48;4.30;;;3.90;;
9398;SDS011;4739;49.334;8.792;2022-10-30T08:12:14;6.07;;;5.47;;
9398;SDS011;4739;49.334;8.792;2022-10-30T08:14:40;7.17;;;5.20;;
9398;SDS011;4739;49.334;8.792;2022-10-30T08:17:05;6.13;;;4.43;;
9398;SDS011;4739;49.334;8.792;2022-10-30T08:19:34;5.70;;;4.80;;
9398;SDS011;4739;49.334;8.792;2022-10-30T08:22:00;5.17;;;4.77;;
9398;SDS011;4739;49.334;8.792;2022-10-30T08:24:26;6.17;;;4.53;;
9398;SDS011;4739;49.334;8.792;2022-10-30T08:26:51;4.87;;;4.37;;
9398;SDS011;4739;49.334;8.792;2022-10-30T08:29:17;5.23;;;4.60;;
9398;SDS011;4739;49.334;8.792;2022-10-30T08:31:43;6.83;;;4.60;;
9398;SDS011;4739;49.334;8.792;2022-10-30T08:34:08;5.70;;;4.20;;
9398;SDS011;4739;49.334;8.792;2022-10-30T08:36:34;7.10;;;4.33;;
9398;SDS011;4739;49.334;8.792;2022-10-30T08:38:59;4.90;;;4.50;;
9398;SDS011;4739;49.334;8.792;2022-10-30T08:41:27;4.00;;;3.60;;
9398;SDS011;4739;49.334;8.792;2022-10-30T08:43:53;4.87;;;4.20;;
9398;SDS011;4739;49.334;8.792;2022-10-30T08:46:19;5.83;;;4.37;;
9398;SDS011;4739;49.334;8.792;2022-10-30T08:48:44;5.17;;;4.37;;
9398;SDS011;4739;49.334;8.792;2022-10-30T08:51:10;5.17;;;4.17;;
9398;SDS011;4739;49.334;8.792;2022-10-30T08:53:35;4.70;;;4.03;;
9398;SDS011;4739;49.334;8.792;2022-10-30T08:56:01;4.90;;;4.33;;
9398;SDS011;4739;49.334;8.792;2022-10-30T08:58:26;4.93;;;4.37;;
9398;SDS011;4739;49.334;8.792;2022-10-30T09:00:52;5.13;;;4.63;;
9398;SDS011;4739;49.334;8.792;2022-10-30T09:03:18;5.30;;;4.50;;
9398;SDS011;4739;49.334;8.792;2022-10-30T09:05:43;6.37;;;4.20;;
9398;SDS011;4739;49.334;8.792;2022-10-30T09:08:09;6.33;;;4.40;;
9398;SDS011;4739;49.334;8.792;2022-10-30T09:10:34;7.93;;;4.93;;
9398;SDS011;4739;49.334;8.792;2022-10-30T09:13:00;4.87;;;4.13;;
9398;SDS011;4739;49.334;8.792;2022-10-30T09:15:28;6.30;;;4.60;;
9398;SDS011;4739;49.334;8.792;2022-10-30T09:17:55;6.53;;;4.77;;
9398;SDS011;4739;49.334;8.792;2022-10-30T09:20:22;7.33;;;4.70;;
9398;SDS011;4739;49.334;8.792;2022-10-30T09:22:48;8.70;;;4.77;;
9398;SDS011;4739;49.334;8.792;2022-10-30T09:25:13;6.60;;;4.30;;
9398;SDS011;4739;49.334;8.792;2022-10-30T09:27:39;7.37;;;4.60;;
9398;SDS011;4739;49.334;8.792;2022-10-30T09:30:04;7.23;;;4.50;;
9398;SDS011;4739;49.334;8.792;2022-10-30T09:32:31;6.27;;;4.53;;
9398;SDS011;4739;49.334;8.792;2022-10-30T09:34:56;6.47;;;4.87;;
9398;SDS011;4739;49.334;8.792;2022-10-30T09:37:22;7.77;;;5.17;;
9398;SDS011;4739;49.334;8.792;2022-10-30T09:39:48;8.93;;;4.60;;
9398;SDS011;4739;49.334;8.792;2022-10-30T09:42:18;7.17;;;5.10;;
9398;SDS011;4739;49.334;8.792;2022-10-30T09:47:44;7.30;;;4.50;;
9398;SDS011;4739;49.334;8.792;2022-10-30T09:53:27;6.17;;;4.53;;
9398;SDS011;4739;49.334;8.792;2022-10-30T09:56:03;6.73;;;4.97;;
9398;SDS011;4739;49.334;8.792;2022-10-30T09:58:36;6.20;;;4.73;;
9398;SDS011;4739;49.334;8.792;2022-10-30T10:01:12;7.27;;;4.73;;
9398;SDS011;4739;49.334;8.792;2022-10-30T10:07:01;7.03;;;4.77;;
9398;SDS011;4739;49.334;8.792;2022-10-30T10:09:33;6.97;;;5.00;;
9398;SDS011;4739;49.334;8.792;2022-10-30T10:12:03;6.70;;;4.90;;
9398;SDS011;4739;49.334;8.792;2022-10-30T10:14:38;7.77;;;5.13;;
9398;SDS011;4739;49.334;8.792;2022-10-30T10:17:12;9.83;;;5.07;;
9398;SDS011;4739;49.334;8.792;2022-10-30T10:22:21;5.30;;;4.80;;
9398;SDS011;4739;49.334;8.792;2022-10-30T10:24:59;8.03;;;5.50;;
9398;SDS011;4739;49.334;8.792;2022-10-30T10:27:37;9.77;;;5.40;;
9398;SDS011;4739;49.334;8.792;2022-10-30T10:30:13;11.27;;;5.00;;
9398;SDS011;4739;49.334;8.792;2022-10-30T10:47:31;7.60;;;4.17;;
9398;SDS011;4739;49.334;8.792;2022-10-30T10:52:53;9.47;;;5.00;;
9398;SDS011;4739;49.334;8.792;2022-10-30T10:55:26;9.77;;;5.03;;
9398;SDS011;4739;49.334;8.792;2022-10-30T10:57:56;9.90;;;4.93;;
9398;SDS011;4739;49.334;8.792;2022-10-30T11:00:27;6.77;;;4.67;;
9398;SDS011;4739;49.334;8.792;2022-10-30T11:05:33;10.30;;;5.50;;
9398;SDS011;4739;49.334;8.792;2022-10-30T11:08:24;7.47;;;5.07;;
9398;SDS011;4739;49.334;8.792;2022-10-30T11:10:57;10.87;;;5.70;;
9398;SDS011;4739;49.334;8.792;2022-10-30T11:13:37;8.17;;;5.03;;
9398;SDS011;4739;49.334;8.792;2022-10-30T11:19:00;8.70;;;4.70;;
9398;SDS011;4739;49.334;8.792;2022-10-30T11:21:30;9.27;;;5.40;;
9398;SDS011;4739;49.334;8.792;2022-10-30T11:23:58;8.97;;;4.87;;
9398;SDS011;4739;49.334;8.792;2022-10-30T11:26:28;11.07;;;5.13;;
9398;SDS011;4739;49.334;8.792;2022-10-30T11:31:39;8.50;;;4.87;;
9398;SDS011;4739;49.334;8.792;2022-10-30T11:36:44;9.50;;;5.83;;
9398;SDS011;4739;49.334;8.792;2022-10-30T11:39:44;7.37;;;5.03;;
9398;SDS011;4739;49.334;8.792;2022-10-30T11:42:13;9.53;;;4.87;;
9398;SDS011;4739;49.334;8.792;2022-10-30T11:44:42;9.07;;;4.77;;
9398;SDS011;4739;49.334;8.792;2022-10-30T11:47:12;11.27;;;4.97;;
9398;SDS011;4739;49.334;8.792;2022-10-30T11:52:13;6.40;;;4.22;;
9398;SDS011;4739;49.334;8.792;2022-10-30T11:54:42;8.80;;;4.53;;
9398;SDS011;4739;49.334;8.792;2022-10-30T11:57:17;6.72;;;4.53;;
9398;SDS011;4739;49.334;8.792;2022-10-30T11:59:49;9.40;;;5.10;;
9398;SDS011;4739;49.334;8.792;2022-10-30T12:02:19;7.82;;;5.03;;
9398;SDS011;4739;49.334;8.792;2022-10-30T12:04:51;12.60;;;5.95;;
9398;SDS011;4739;49.334;8.792;2022-10-30T12:09:48;8.45;;;5.43;;
9398;SDS011;4739;49.334;8.792;2022-10-30T12:15:09;11.82;;;7.43;;
9398;SDS011;4739;49.334;8.792;2022-10-30T12:18:21;12.57;;;6.77;;
9398;SDS011;4739;49.334;8.792;2022-10-30T12:20:57;8.17;;;5.60;;
9398;SDS011;4739;49.334;8.792;2022-10-30T12:23:24;9.57;;;5.20;;
9398;SDS011;4739;49.334;8.792;2022-10-30T12:25:53;9.35;;;5.18;;
9398;SDS011;4739;49.334;8.792;2022-10-30T12:28:20;12.20;;;4.87;;
9398;SDS011;4739;49.334;8.792;2022-10-30T12:30:52;8.48;;;5.10;;
9398;SDS011;4739;49.334;8.792;2022-10-30T12:33:26;7.85;;;4.53;;
9398;SDS011;4739;49.334;8.792;2022-10-30T12:35:58;9.00;;;4.97;;
9398;SDS011;4739;49.334;8.792;2022-10-30T12:41:06;7.27;;;4.70;;
9398;SDS011;4739;49.334;8.792;2022-10-30T12:43:41;8.10;;;4.97;;
9398;SDS011;4739;49.334;8.792;2022-10-30T12:48:51;11.00;;;4.33;;
9398;SDS011;4739;49.334;8.792;2022-10-30T12:51:50;8.50;;;4.57;;
9398;SDS011;4739;49.334;8.792;2022-10-30T12:57:27;10.65;;;4.10;;
9398;SDS011;4739;49.334;8.792;2022-10-30T13:00:03;11.27;;;5.33;;
9398;SDS011;4739;49.334;8.792;2022-10-30T13:05:44;11.10;;;4.43;;
9398;SDS011;4739;49.334;8.792;2022-10-30T13:10:45;6.87;;;4.43;;
9398;SDS011;4739;49.334;8.792;2022-10-30T13:13:18;10.70;;;4.50;;
9398;SDS011;4739;49.334;8.792;2022-10-30T13:15:51;11.00;;;4.60;;
9398;SDS011;4739;49.334;8.792;2022-10-30T13:18:22;8.30;;;4.27;;
9398;SDS011;4739;49.334;8.792;2022-10-30T13:26:15;11.30;;;4.67;;
9398;SDS011;4739;49.334;8.792;2022-10-30T13:28:46;12.88;;;4.82;;
9398;SDS011;4739;49.334;8.792;2022-10-30T13:34:31;11.63;;;4.77;;
9398;SDS011;4739;49.334;8.792;2022-10-30T13:37:28;11.83;;;4.77;;
9398;SDS011;4739;49.334;8.792;2022-10-30T13:48:31;10.60;;;4.47;;
9398;SDS011;4739;49.334;8.792;2022-10-30T13:51:43;8.90;;;4.23;;
9398;SDS011;4739;49.334;8.792;2022-10-30T13:54:18;8.87;;;4.33;;
9398;SDS011;4739;49.334;8.792;2022-10-30T13:57:02;11.33;;;5.77;;
9398;SDS011;4739;49.334;8.792;2022-10-30T13:59:42;11.20;;;5.20;;
9398;SDS011;4739;49.334;8.792;2022-10-30T14:04:57;12.33;;;5.70;;
9398;SDS011;4739;49.334;8.792;2022-10-30T14:07:47;9.40;;;4.82;;
9398;SDS011;4739;49.334;8.792;2022-10-30T14:15:25;8.50;;;4.90;;
9398;SDS011;4739;49.334;8.792;2022-10-30T14:23:57;12.10;;;4.47;;
9398;SDS011;4739;49.334;8.792;2022-10-30T14:26:25;11.00;;;4.43;;
9398;SDS011;4739;49.334;8.792;2022-10-30T14:28:51;7.93;;;4.87;;
9398;SDS011;4739;49.334;8.792;2022-10-30T14:31:31;8.47;;;5.13;;
9398;SDS011;4739;49.334;8.792;2022-10-30T14:33:58;8.57;;;5.20;;
9398;SDS011;4739;49.334;8.792;2022-10-30T14:36:25;10.83;;;4.70;;
9398;SDS011;4739;49.334;8.792;2022-10-30T14:49:56;12.73;;;5.70;;
9398;SDS011;4739;49.334;8.792;2022-10-30T14:52:41;12.30;;;5.20;;
9398;SDS011;4739;49.334;8.792;2022-10-30T15:03:04;9.93;;;4.80;;
9398;SDS011;4739;49.334;8.792;2022-10-30T15:05:51;12.07;;;5.67;;
9398;SDS011;4739;49.334;8.792;2022-10-30T15:14:00;8.93;;;4.93;;
9398;SDS011;4739;49.334;8.792;2022-10-30T15:16:30;12.57;;;5.33;;
9398;SDS011;4739;49.334;8.792;2022-10-30T15:19:02;11.97;;;5.20;;
9398;SDS011;4739;49.334;8.792;2022-10-30T15:21:30;9.37;;;4.90;;
9398;SDS011;4739;49.334;8.792;2022-10-30T15:24:03;11.93;;;5.40;;
9398;SDS011;4739;49.334;8.792;2022-10-30T15:26:35;10.77;;;5.13;;
9398;SDS011;4739;49.334;8.792;2022-10-30T15:29:03;12.43;;;4.93;;
9398;SDS011;4739;49.334;8.792;2022-10-30T15:31:30;9.03;;;4.80;;
9398;SDS011;4739;49.334;8.792;2022-10-30T15:33:57;11.10;;;4.80;;
9398;SDS011;4739;49.334;8.792;2022-10-30T15:36:24;10.10;;;4.40;;
9398;SDS011;4739;49.334;8.792;2022-10-30T15:44:25;6.40;;;4.40;;
9398;SDS011;4739;49.334;8.792;2022-10-30T15:46:54;10.07;;;5.27;;
9398;SDS011;4739;49.334;8.792;2022-10-30T15:49:27;8.33;;;4.77;;
9398;SDS011;4739;49.334;8.792;2022-10-30T15:51:54;12.07;;;5.57;;
9398;SDS011;4739;49.334;8.792;2022-10-30T15:54:19;10.67;;;5.27;;
9398;SDS011;4739;49.334;8.792;2022-10-30T15:56:47;9.20;;;4.73;;
9398;SDS011;4739;49.334;8.792;2022-10-30T15:59:32;11.27;;;5.53;;
9398;SDS011;4739;49.334;8.792;2022-10-30T16:01:59;10.67;;;5.20;;
9398;SDS011;4739;49.334;8.792;2022-10-30T16:04:26;11.07;;;5.17;;
9398;SDS011;4739;49.334;8.792;2022-10-30T16:06:57;7.90;;;4.47;;
9398;SDS011;4739;49.334;8.792;2022-10-30T16:09:24;8.93;;;6.23;;
9398;SDS011;4739;49.334;8.792;2022-10-30T16:11:52;9.87;;;5.30;;
9398;SDS011;4739;49.334;8.792;2022-10-30T16:14:23;8.57;;;5.20;;
9398;SDS011;4739;49.334;8.792;2022-10-30T16:16:51;8.80;;;4.83;;
9398;SDS011;4739;49.334;8.792;2022-10-30T16:21:54;9.33;;;4.93;;
9398;SDS011;4739;49.334;8.792;2022-10-30T16:24:21;11.20;;;5.40;;
9398;SDS011;4739;49.334;8.792;2022-10-30T16:29:42;11.47;;;5.10;;
9398;SDS011;4739;49.334;8.792;2022-10-30T16:32:10;8.20;;;4.77;;
9398;SDS011;4739;49.334;8.792;2022-10-30T16:34:38;6.77;;;4.63;;
9398;SDS011;4739;49.334;8.792;2022-10-30T16:37:05;9.00;;;4.60;;
9398;SDS011;4739;49.334;8.792;2022-10-30T16:39:38;8.80;;;5.00;;
9398;SDS011;4739;49.334;8.792;2022-10-30T16:42:05;12.87;;;5.73;;
9398;SDS011;4739;49.334;8.792;2022-10-30T16:44:31;8.47;;;5.30;;
9398;SDS011;4739;49.334;8.792;2022-10-30T16:49:33;8.47;;;4.90;;
9398;SDS011;4739;49.334;8.792;2022-10-30T16:52:03;9.30;;;4.77;;
9398;SDS011;4739;49.334;8.792;2022-10-30T16:54:40;9.60;;;5.20;;
9398;SDS011;4739;49.334;8.792;2022-10-30T16:57:21;10.23;;;5.23;;
9398;SDS011;4739;49.334;8.792;2022-10-30T16:59:51;7.60;;;4.77;;
9398;SDS011;4739;49.334;8.792;2022-10-30T17:02:18;7.37;;;4.23;;
9398;SDS011;4739;49.334;8.792;2022-10-30T17:04:46;9.87;;;4.80;;
9398;SDS011;4739;49.334;8.792;2022-10-30T17:07:17;7.73;;;4.60;;
9398;SDS011;4739;49.334;8.792;2022-10-30T17:09:47;10.00;;;4.63;;
9398;SDS011;4739;49.334;8.792;2022-10-30T17:12:17;7.70;;;4.57;;
9398;SDS011;4739;49.334;8.792;2022-10-30T17:15:08;8.60;;;4.77;;
9398;SDS011;4739;49.334;8.792;2022-10-30T17:17:37;12.83;;;4.87;;
9398;SDS011;4739;49.334;8.792;2022-10-30T17:20:12;8.47;;;4.60;;
9398;SDS011;4739;49.334;8.792;2022-10-30T17:22:43;11.03;;;4.90;;
9398;SDS011;4739;49.334;8.792;2022-10-30T17:28:28;10.93;;;4.73;;
9398;SDS011;4739;49.334;8.792;2022-10-30T17:31:02;10.33;;;5.17;;
9398;SDS011;4739;49.334;8.792;2022-10-30T17:36:27;7.97;;;5.10;;
9398;SDS011;4739;49.334;8.792;2022-10-30T17:38:52;9.53;;;5.80;;
9398;SDS011;4739;49.334;8.792;2022-10-30T17:41:18;8.60;;;4.87;;
9398;SDS011;4739;49.334;8.792;2022-10-30T17:43:50;9.03;;;5.43;;
9398;SDS011;4739;49.334;8.792;2022-10-30T17:46:17;7.87;;;4.40;;
9398;SDS011;4739;49.334;8.792;2022-10-30T17:48:42;7.70;;;4.90;;
9398;SDS011;4739;49.334;8.792;2022-10-30T17:51:10;9.40;;;5.87;;
9398;SDS011;4739;49.334;8.792;2022-10-30T17:53:37;8.33;;;4.80;;
9398;SDS011;4739;49.334;8.792;2022-10-30T17:56:13;8.50;;;4.70;;
9398;SDS011;4739;49.334;8.792;2022-10-30T17:58:57;7.83;;;5.03;;
9398;SDS011;4739;49.334;8.792;2022-10-30T18:01:23;9.10;;;5.13;;
9398;SDS011;4739;49.334;8.792;2022-10-30T18:03:51;10.30;;;4.73;;
9398;SDS011;4739;49.334;8.792;2022-10-30T18:06:20;10.80;;;4.90;;
9398;SDS011;4739;49.334;8.792;2022-10-30T18:08:47;7.70;;;4.63;;
9398;SDS011;4739;49.334;8.792;2022-10-30T18:11:14;13.17;;;4.90;;
9398;SDS011;4739;49.334;8.792;2022-10-30T18:13:43;11.07;;;5.10;;